sensor_id;sensor_type;location;lat;lon;timestamp;P1;durP1;ratioP1;P2;durP2;ratioP2
64816;SDS011;69411;45.656;11.740;2023-11-25T00:02:19;32.53;;;17.88;;
64816;SDS011;69411;45.656;11.740;2023-11-25T00:04:45;33.70;;;16.17;;
64816;SDS011;69411;45.656;11.740;2023-11-25T00:07:11;29.13;;;15.50;;
64816;SDS011;69411;45.656;11.740;2023-11-25T00:09:37;33.95;;;16.38;;
64816;SDS011;69411;45.656;11.740;2023-11-25T00:12:03;28.92;;;14.88;;
64816;SDS011;69411;45.656;11.740;2023-11-25T00:14:29;29.83;;;14.55;;
64816;SDS011;69411;45.656;11.740;2023-11-25T00:16:55;31.15;;;15.65;;
64816;SDS011;69411;45.656;11.740;2023-11-25T00:19:21;29.52;;;16.25;;
64816;SDS011;69411;45.656;11.740;2023-11-25T00:21:47;29.92;;;15.98;;
64816;SDS011;69411;45.656;11.740;2023-11-25T00:24:13;30.13;;;16.55;;
64816;SDS011;69411;45.656;11.740;2023-11-25T00:26:39;30.42;;;16.17;;
64816;SDS011;69411;45.656;11.740;2023-11-25T00:29:05;27.58;;;14.55;;
64816;SDS011;69411;45.656;11.740;2023-11-25T00:31:31;32.42;;;15.65;;
64816;SDS011;69411;45.656;11.740;2023-11-25T00:33:58;37.35;;;18.73;;
64816;SDS011;69411;45.656;11.740;2023-11-25T00:36:24;34.70;;;17.60;;
64816;SDS011;69411;45.656;11.740;2023-11-25T00:38:50;33.03;;;16.40;;
64816;SDS011;69411;45.656;11.740;2023-11-25T00:41:18;30.42;;;15.88;;
64816;SDS011;69411;45.656;11.740;2023-11-25T00:43:43;34.45;;;16.45;;
64816;SDS011;69411;45.656;11.740;2023-11-25T00:46:09;26.27;;;13.88;;
64816;SDS011;69411;45.656;11.740;2023-11-25T00:48:36;28.90;;;15.43;;
64816;SDS011;69411;45.656;11.740;2023-11-25T00:51:02;29.63;;;16.02;;
64816;SDS011;69411;45.656;11.740;2023-11-25T00:53:28;28.10;;;16.10;;
64816;SDS011;69411;45.656;11.740;2023-11-25T00:55:54;30.02;;;15.93;;
64816;SDS011;69411;45.656;11.740;2023-11-25T00:58:22;31.23;;;14.95;;
64816;SDS011;69411;45.656;11.740;2023-11-25T01:00:48;30.20;;;14.23;;
64816;SDS011;69411;45.656;11.740;2023-11-25T01:03:15;29.08;;;15.32;;
64816;SDS011;69411;45.656;11.740;2023-11-25T01:05:41;30.67;;;16.55;;
64816;SDS011;69411;45.656;11.740;2023-11-25T01:08:07;30.17;;;15.35;;
64816;SDS011;69411;45.656;11.740;2023-11-25T01:10:33;29.30;;;14.95;;
64816;SDS011;69411;45.656;11.740;2023-11-25T01:13:00;27.38;;;13.63;;
64816;SDS011;69411;45.656;11.740;2023-11-25T01:15:26;28.45;;;14.10;;
64816;SDS011;69411;45.656;11.740;2023-11-25T01:17:52;27.23;;;14.23;;
64816;SDS011;69411;45.656;11.740;2023-11-25T01:20:18;27.55;;;14.98;;
64816;SDS011;69411;45.656;11.740;2023-11-25T01:22:44;21.02;;;10.82;;
64816;SDS011;69411;45.656;11.740;2023-11-25T01:25:11;11.95;;;6.10;;
64816;SDS011;69411;45.656;11.740;2023-11-25T01:27:37;10.23;;;5.20;;
64816;SDS011;69411;45.656;11.740;2023-11-25T01:30:04;2.38;;;1.80;;
64816;SDS011;69411;45.656;11.740;2023-11-25T01:32:30;6.43;;;3.10;;
64816;SDS011;69411;45.656;11.740;2023-11-25T01:34:56;7.72;;;3.40;;
64816;SDS011;69411;45.656;11.740;2023-11-25T01:37:22;7.28;;;3.67;;
64816;SDS011;69411;45.656;11.740;2023-11-25T01:39:51;6.32;;;3.42;;
64816;SDS011;69411;45.656;11.740;2023-11-25T01:42:18;8.05;;;3.85;;
64816;SDS011;69411;45.656;11.740;2023-11-25T01:44:44;4.38;;;2.53;;
64816;SDS011;69411;45.656;11.740;2023-11-25T01:47:11;4.70;;;2.60;;
64816;SDS011;69411;45.656;11.740;2023-11-25T01:49:39;5.70;;;2.38;;
64816;SDS011;69411;45.656;11.740;2023-11-25T01:52:05;5.32;;;2.83;;
64816;SDS011;69411;45.656;11.740;2023-11-25T01:54:33;6.65;;;2.70;;
64816;SDS011;69411;45.656;11.740;2023-11-25T01:57:00;4.57;;;2.35;;
64816;SDS011;69411;45.656;11.740;2023-11-25T01:59:27;4.72;;;2.20;;
64816;SDS011;69411;45.656;11.740;2023-11-25T02:01:55;3.42;;;2.13;;
64816;SDS011;69411;45.656;11.740;2023-11-25T02:04:22;5.13;;;2.50;;
64816;SDS011;69411;45.656;11.740;2023-11-25T02:06:48;5.90;;;2.50;;
64816;SDS011;69411;45.656;11.740;2023-11-25T02:09:15;5.03;;;2.72;;
64816;SDS011;69411;45.656;11.740;2023-11-25T02:11:55;2.75;;;2.10;;
64816;SDS011;69411;45.656;11.740;2023-11-25T02:14:23;1.92;;;1.20;;
64816;SDS011;69411;45.656;11.740;2023-11-25T02:16:53;2.05;;;1.42;;
64816;SDS011;69411;45.656;11.740;2023-11-25T02:19:20;4.45;;;1.75;;
64816;SDS011;69411;45.656;11.740;2023-11-25T02:21:49;8.63;;;2.85;;
64816;SDS011;69411;45.656;11.740;2023-11-25T02:24:16;5.95;;;2.63;;
64816;SDS011;69411;45.656;11.740;2023-11-25T02:26:43;3.67;;;2.42;;
64816;SDS011;69411;45.656;11.740;2023-11-25T02:29:09;4.45;;;2.40;;
64816;SDS011;69411;45.656;11.740;2023-11-25T02:31:35;3.50;;;1.80;;
64816;SDS011;69411;45.656;11.740;2023-11-25T02:34:05;3.63;;;2.15;;
64816;SDS011;69411;45.656;11.740;2023-11-25T02:36:34;2.17;;;1.00;;
64816;SDS011;69411;45.656;11.740;2023-11-25T02:39:01;2.40;;;1.13;;
64816;SDS011;69411;45.656;11.740;2023-11-25T02:41:27;4.38;;;1.60;;
64816;SDS011;69411;45.656;11.740;2023-11-25T02:43:54;3.17;;;1.42;;
64816;SDS011;69411;45.656;11.740;2023-11-25T02:46:20;3.85;;;1.27;;
64816;SDS011;69411;45.656;11.740;2023-11-25T02:48:46;5.75;;;1.67;;
64816;SDS011;69411;45.656;11.740;2023-11-25T02:51:12;7.03;;;1.90;;
64816;SDS011;69411;45.656;11.740;2023-11-25T02:53:38;3.00;;;1.63;;
64816;SDS011;69411;45.656;11.740;2023-11-25T02:56:04;6.47;;;2.50;;
64816;SDS011;69411;45.656;11.740;2023-11-25T02:58:31;4.45;;;1.65;;
64816;SDS011;69411;45.656;11.740;2023-11-25T03:00:57;3.33;;;1.35;;
64816;SDS011;69411;45.656;11.740;2023-11-25T03:03:27;3.42;;;1.63;;
64816;SDS011;69411;45.656;11.740;2023-11-25T03:05:53;2.83;;;1.30;;
64816;SDS011;69411;45.656;11.740;2023-11-25T03:08:19;1.90;;;1.23;;
64816;SDS011;69411;45.656;11.740;2023-11-25T03:10:48;2.47;;;1.05;;
64816;SDS011;69411;45.656;11.740;2023-11-25T03:13:16;4.75;;;1.63;;
64816;SDS011;69411;45.656;11.740;2023-11-25T03:15:42;5.32;;;2.35;;
64816;SDS011;69411;45.656;11.740;2023-11-25T03:18:08;2.28;;;1.10;;
64816;SDS011;69411;45.656;11.740;2023-11-25T03:20:34;1.75;;;0.93;;
64816;SDS011;69411;45.656;11.740;2023-11-25T03:23:01;0.52;;;0.52;;
64816;SDS011;69411;45.656;11.740;2023-11-25T03:25:32;1.33;;;0.80;;
64816;SDS011;69411;45.656;11.740;2023-11-25T03:27:59;2.38;;;1.20;;
64816;SDS011;69411;45.656;11.740;2023-11-25T03:30:31;1.20;;;0.85;;
64816;SDS011;69411;45.656;11.740;2023-11-25T03:32:57;3.63;;;1.20;;
64816;SDS011;69411;45.656;11.740;2023-11-25T03:35:23;4.20;;;1.75;;
64816;SDS011;69411;45.656;11.740;2023-11-25T03:37:49;1.70;;;0.82;;
64816;SDS011;69411;45.656;11.740;2023-11-25T03:40:15;2.75;;;1.10;;
64816;SDS011;69411;45.656;11.740;2023-11-25T03:42:44;1.67;;;0.98;;
64816;SDS011;69411;45.656;11.740;2023-11-25T03:45:11;1.98;;;1.05;;
64816;SDS011;69411;45.656;11.740;2023-11-25T03:47:40;1.52;;;0.80;;
64816;SDS011;69411;45.656;11.740;2023-11-25T03:50:08;0.43;;;0.43;;
64816;SDS011;69411;45.656;11.740;2023-11-25T03:52:37;0.68;;;0.30;;
64816;SDS011;69411;45.656;11.740;2023-11-25T03:55:06;0.50;;;0.40;;
64816;SDS011;69411;45.656;11.740;2023-11-25T03:57:35;1.10;;;0.40;;
64816;SDS011;69411;45.656;11.740;2023-11-25T04:00:03;2.50;;;0.93;;
64816;SDS011;69411;45.656;11.740;2023-11-25T04:02:31;0.38;;;0.38;;
64816;SDS011;69411;45.656;11.740;2023-11-25T04:04:57;2.13;;;0.90;;
64816;SDS011;69411;45.656;11.740;2023-11-25T04:07:23;2.70;;;1.40;;
64816;SDS011;69411;45.656;11.740;2023-11-25T04:09:49;3.53;;;1.17;;
64816;SDS011;69411;45.656;11.740;2023-11-25T04:12:14;5.50;;;1.30;;
64816;SDS011;69411;45.656;11.740;2023-11-25T04:14:40;4.65;;;1.40;;
64816;SDS011;69411;45.656;11.740;2023-11-25T04:17:06;3.25;;;1.13;;
64816;SDS011;69411;45.656;11.740;2023-11-25T04:19:33;3.80;;;1.30;;
64816;SDS011;69411;45.656;11.740;2023-11-25T04:21:59;4.57;;;1.30;;
64816;SDS011;69411;45.656;11.740;2023-11-25T04:24:25;3.45;;;1.50;;
64816;SDS011;69411;45.656;11.740;2023-11-25T04:26:52;2.03;;;1.08;;
64816;SDS011;69411;45.656;11.740;2023-11-25T04:29:18;4.00;;;1.80;;
64816;SDS011;69411;45.656;11.740;2023-11-25T04:31:46;8.23;;;2.97;;
64816;SDS011;69411;45.656;11.740;2023-11-25T04:34:15;3.30;;;2.00;;
64816;SDS011;69411;45.656;11.740;2023-11-25T04:36:41;1.95;;;1.40;;
64816;SDS011;69411;45.656;11.740;2023-11-25T04:39:07;6.68;;;2.30;;
64816;SDS011;69411;45.656;11.740;2023-11-25T04:41:38;7.28;;;2.10;;
64816;SDS011;69411;45.656;11.740;2023-11-25T04:44:06;2.78;;;1.30;;
64816;SDS011;69411;45.656;11.740;2023-11-25T04:46:31;5.68;;;1.52;;
64816;SDS011;69411;45.656;11.740;2023-11-25T04:48:58;4.85;;;1.63;;
64816;SDS011;69411;45.656;11.740;2023-11-25T04:51:23;3.08;;;1.20;;
64816;SDS011;69411;45.656;11.740;2023-11-25T04:53:49;3.20;;;1.58;;
64816;SDS011;69411;45.656;11.740;2023-11-25T04:56:15;5.25;;;1.70;;
64816;SDS011;69411;45.656;11.740;2023-11-25T04:58:41;3.10;;;1.30;;
64816;SDS011;69411;45.656;11.740;2023-11-25T05:01:07;3.60;;;1.02;;
64816;SDS011;69411;45.656;11.740;2023-11-25T05:03:33;0.75;;;0.63;;
64816;SDS011;69411;45.656;11.740;2023-11-25T05:05:59;1.33;;;0.45;;
64816;SDS011;69411;45.656;11.740;2023-11-25T05:08:29;1.48;;;0.60;;
64816;SDS011;69411;45.656;11.740;2023-11-25T05:10:54;1.83;;;0.90;;
64816;SDS011;69411;45.656;11.740;2023-11-25T05:13:20;4.07;;;1.50;;
64816;SDS011;69411;45.656;11.740;2023-11-25T05:15:46;2.22;;;0.80;;
64816;SDS011;69411;45.656;11.740;2023-11-25T05:18:12;2.85;;;0.98;;
64816;SDS011;69411;45.656;11.740;2023-11-25T05:20:38;1.13;;;0.82;;
64816;SDS011;69411;45.656;11.740;2023-11-25T05:23:04;1.35;;;1.20;;
64816;SDS011;69411;45.656;11.740;2023-11-25T05:25:30;2.30;;;1.40;;
64816;SDS011;69411;45.656;11.740;2023-11-25T05:27:56;2.15;;;0.40;;
64816;SDS011;69411;45.656;11.740;2023-11-25T05:30:22;1.33;;;0.63;;
64816;SDS011;69411;45.656;11.740;2023-11-25T05:32:48;2.00;;;0.98;;
64816;SDS011;69411;45.656;11.740;2023-11-25T05:35:14;0.80;;;0.60;;
64816;SDS011;69411;45.656;11.740;2023-11-25T05:37:41;1.27;;;0.70;;
64816;SDS011;69411;45.656;11.740;2023-11-25T05:40:09;1.33;;;0.60;;
64816;SDS011;69411;45.656;11.740;2023-11-25T05:42:39;1.85;;;1.08;;
64816;SDS011;69411;45.656;11.740;2023-11-25T05:45:12;1.48;;;0.65;;
64816;SDS011;69411;45.656;11.740;2023-11-25T05:47:38;1.42;;;0.65;;
64816;SDS011;69411;45.656;11.740;2023-11-25T05:50:05;0.82;;;0.60;;
64816;SDS011;69411;45.656;11.740;2023-11-25T05:52:31;2.83;;;0.68;;
64816;SDS011;69411;45.656;11.740;2023-11-25T05:54:57;3.08;;;0.80;;
64816;SDS011;69411;45.656;11.740;2023-11-25T05:57:25;1.48;;;0.60;;
64816;SDS011;69411;45.656;11.740;2023-11-25T05:59:51;2.55;;;1.25;;
64816;SDS011;69411;45.656;11.740;2023-11-25T06:02:17;2.38;;;1.13;;
64816;SDS011;69411;45.656;11.740;2023-11-25T06:04:43;1.17;;;0.88;;
64816;SDS011;69411;45.656;11.740;2023-11-25T06:07:09;1.67;;;0.80;;
64816;SDS011;69411;45.656;11.740;2023-11-25T06:09:35;0.73;;;0.70;;
64816;SDS011;69411;45.656;11.740;2023-11-25T06:12:01;0.93;;;0.60;;
64816;SDS011;69411;45.656;11.740;2023-11-25T06:14:27;0.63;;;0.52;;
64816;SDS011;69411;45.656;11.740;2023-11-25T06:16:53;2.58;;;0.90;;
64816;SDS011;69411;45.656;11.740;2023-11-25T06:19:23;0.85;;;0.70;;
64816;SDS011;69411;45.656;11.740;2023-11-25T06:21:49;4.40;;;1.17;;
64816;SDS011;69411;45.656;11.740;2023-11-25T06:24:15;1.05;;;0.85;;
64816;SDS011;69411;45.656;11.740;2023-11-25T06:26:41;3.20;;;1.20;;
64816;SDS011;69411;45.656;11.740;2023-11-25T06:29:09;1.20;;;0.60;;
64816;SDS011;69411;45.656;11.740;2023-11-25T06:31:35;1.15;;;0.82;;
64816;SDS011;69411;45.656;11.740;2023-11-25T06:34:01;1.50;;;0.93;;
64816;SDS011;69411;45.656;11.740;2023-11-25T06:36:28;1.85;;;1.40;;
64816;SDS011;69411;45.656;11.740;2023-11-25T06:38:55;1.58;;;1.05;;
64816;SDS011;69411;45.656;11.740;2023-11-25T06:41:21;1.63;;;1.05;;
64816;SDS011;69411;45.656;11.740;2023-11-25T06:43:50;1.65;;;1.10;;
64816;SDS011;69411;45.656;11.740;2023-11-25T06:46:16;1.48;;;1.13;;
64816;SDS011;69411;45.656;11.740;2023-11-25T06:48:42;4.47;;;1.80;;
64816;SDS011;69411;45.656;11.740;2023-11-25T06:51:09;3.60;;;1.65;;
64816;SDS011;69411;45.656;11.740;2023-11-25T06:53:37;1.23;;;1.02;;
64816;SDS011;69411;45.656;11.740;2023-11-25T06:56:32;0.70;;;0.70;;
64816;SDS011;69411;45.656;11.740;2023-11-25T06:58:59;0.70;;;0.45;;
64816;SDS011;69411;45.656;11.740;2023-11-25T07:01:25;2.25;;;0.95;;
64816;SDS011;69411;45.656;11.740;2023-11-25T07:03:51;2.28;;;0.80;;
64816;SDS011;69411;45.656;11.740;2023-11-25T07:06:17;0.50;;;0.50;;
64816;SDS011;69411;45.656;11.740;2023-11-25T07:08:46;0.50;;;0.50;;
64816;SDS011;69411;45.656;11.740;2023-11-25T07:11:12;1.83;;;0.57;;
64816;SDS011;69411;45.656;11.740;2023-11-25T07:13:42;2.17;;;1.40;;
64816;SDS011;69411;45.656;11.740;2023-11-25T07:16:08;2.83;;;1.02;;
64816;SDS011;69411;45.656;11.740;2023-11-25T07:18:37;3.33;;;1.58;;
64816;SDS011;69411;45.656;11.740;2023-11-25T07:21:10;2.80;;;0.90;;
64816;SDS011;69411;45.656;11.740;2023-11-25T07:23:39;1.17;;;0.85;;
64816;SDS011;69411;45.656;11.740;2023-11-25T07:26:06;1.08;;;0.70;;
64816;SDS011;69411;45.656;11.740;2023-11-25T07:28:32;1.52;;;0.80;;
64816;SDS011;69411;45.656;11.740;2023-11-25T07:30:59;2.22;;;0.70;;
64816;SDS011;69411;45.656;11.740;2023-11-25T07:33:25;2.38;;;0.93;;
64816;SDS011;69411;45.656;11.740;2023-11-25T07:35:51;0.73;;;0.70;;
64816;SDS011;69411;45.656;11.740;2023-11-25T07:38:17;5.03;;;2.55;;
64816;SDS011;69411;45.656;11.740;2023-11-25T07:40:43;7.47;;;3.85;;
64816;SDS011;69411;45.656;11.740;2023-11-25T07:43:09;3.63;;;2.05;;
64816;SDS011;69411;45.656;11.740;2023-11-25T07:45:34;2.67;;;2.03;;
64816;SDS011;69411;45.656;11.740;2023-11-25T07:48:00;2.33;;;1.88;;
64816;SDS011;69411;45.656;11.740;2023-11-25T07:50:26;2.72;;;1.80;;
64816;SDS011;69411;45.656;11.740;2023-11-25T07:55:34;1.58;;;1.45;;
64816;SDS011;69411;45.656;11.740;2023-11-25T07:58:01;3.35;;;1.58;;
64816;SDS011;69411;45.656;11.740;2023-11-25T08:00:27;7.05;;;2.88;;
64816;SDS011;69411;45.656;11.740;2023-11-25T08:02:53;6.93;;;2.88;;
64816;SDS011;69411;45.656;11.740;2023-11-25T08:05:22;6.28;;;2.70;;
64816;SDS011;69411;45.656;11.740;2023-11-25T08:07:52;8.15;;;3.10;;
64816;SDS011;69411;45.656;11.740;2023-11-25T08:10:19;3.47;;;2.22;;
64816;SDS011;69411;45.656;11.740;2023-11-25T08:12:46;2.10;;;1.30;;
64816;SDS011;69411;45.656;11.740;2023-11-25T08:15:15;3.80;;;1.58;;
64816;SDS011;69411;45.656;11.740;2023-11-25T08:17:44;2.20;;;1.13;;
64816;SDS011;69411;45.656;11.740;2023-11-25T08:20:10;1.92;;;1.13;;
64816;SDS011;69411;45.656;11.740;2023-11-25T08:28:07;4.28;;;1.13;;
64816;SDS011;69411;45.656;11.740;2023-11-25T08:30:36;1.90;;;1.13;;
64816;SDS011;69411;45.656;11.740;2023-11-25T08:33:02;0.77;;;0.70;;
64816;SDS011;69411;45.656;11.740;2023-11-25T08:35:29;1.27;;;0.50;;
64816;SDS011;69411;45.656;11.740;2023-11-25T08:37:55;2.05;;;1.13;;
64816;SDS011;69411;45.656;11.740;2023-11-25T08:40:22;4.57;;;2.63;;
64816;SDS011;69411;45.656;11.740;2023-11-25T08:42:48;4.35;;;2.10;;
64816;SDS011;69411;45.656;11.740;2023-11-25T08:45:15;6.15;;;1.83;;
64816;SDS011;69411;45.656;11.740;2023-11-25T08:47:41;1.75;;;0.40;;
64816;SDS011;69411;45.656;11.740;2023-11-25T08:50:08;1.15;;;0.50;;
64816;SDS011;69411;45.656;11.740;2023-11-25T08:52:36;0.95;;;0.60;;
64816;SDS011;69411;45.656;11.740;2023-11-25T08:55:04;1.17;;;0.70;;
64816;SDS011;69411;45.656;11.740;2023-11-25T08:57:34;5.47;;;1.00;;
64816;SDS011;69411;45.656;11.740;2023-11-25T09:00:02;0.95;;;0.60;;
64816;SDS011;69411;45.656;11.740;2023-11-25T09:02:42;0.63;;;0.63;;
64816;SDS011;69411;45.656;11.740;2023-11-25T09:05:09;1.10;;;0.68;;
64816;SDS011;69411;45.656;11.740;2023-11-25T09:07:36;0.98;;;0.65;;
64816;SDS011;69411;45.656;11.740;2023-11-25T09:10:07;0.45;;;0.45;;
64816;SDS011;69411;45.656;11.740;2023-11-25T09:12:33;0.65;;;0.57;;
64816;SDS011;69411;45.656;11.740;2023-11-25T09:14:59;1.23;;;0.50;;
64816;SDS011;69411;45.656;11.740;2023-11-25T09:17:28;1.95;;;0.60;;
64816;SDS011;69411;45.656;11.740;2023-11-25T09:19:54;0.90;;;0.80;;
64816;SDS011;69411;45.656;11.740;2023-11-25T09:22:20;2.22;;;1.20;;
64816;SDS011;69411;45.656;11.740;2023-11-25T09:24:46;0.60;;;0.60;;
64816;SDS011;69411;45.656;11.740;2023-11-25T09:27:12;0.63;;;0.63;;
64816;SDS011;69411;45.656;11.740;2023-11-25T09:29:38;4.40;;;1.30;;
64816;SDS011;69411;45.656;11.740;2023-11-25T09:34:41;29.00;;;2.97;;
64816;SDS011;69411;45.656;11.740;2023-11-25T09:37:07;1.17;;;0.77;;
64816;SDS011;69411;45.656;11.740;2023-11-25T09:39:32;1.17;;;0.68;;
64816;SDS011;69411;45.656;11.740;2023-11-25T09:41:59;1.40;;;0.32;;
64816;SDS011;69411;45.656;11.740;2023-11-25T09:44:24;1.30;;;0.88;;
64816;SDS011;69411;45.656;11.740;2023-11-25T09:46:51;0.40;;;0.40;;
64816;SDS011;69411;45.656;11.740;2023-11-25T09:49:17;0.63;;;0.30;;
64816;SDS011;69411;45.656;11.740;2023-11-25T09:51:46;0.55;;;0.32;;
64816;SDS011;69411;45.656;11.740;2023-11-25T09:54:20;0.32;;;0.30;;
64816;SDS011;69411;45.656;11.740;2023-11-25T09:59:14;1.95;;;0.50;;
64816;SDS011;69411;45.656;11.740;2023-11-25T10:01:41;1.05;;;0.65;;
64816;SDS011;69411;45.656;11.740;2023-11-25T10:04:07;1.48;;;0.90;;
64816;SDS011;69411;45.656;11.740;2023-11-25T10:06:33;1.73;;;1.40;;
64816;SDS011;69411;45.656;11.740;2023-11-25T10:08:59;1.88;;;1.08;;
64816;SDS011;69411;45.656;11.740;2023-11-25T10:11:28;1.55;;;1.23;;
64816;SDS011;69411;45.656;11.740;2023-11-25T10:13:57;0.55;;;0.50;;
64816;SDS011;69411;45.656;11.740;2023-11-25T10:16:27;0.47;;;0.47;;
64816;SDS011;69411;45.656;11.740;2023-11-25T10:18:56;3.58;;;0.60;;
64816;SDS011;69411;45.656;11.740;2023-11-25T10:21:22;2.15;;;1.10;;
64816;SDS011;69411;45.656;11.740;2023-11-25T10:23:49;0.40;;;0.32;;
64816;SDS011;69411;45.656;11.740;2023-11-25T10:26:19;2.50;;;1.92;;
64816;SDS011;69411;45.656;11.740;2023-11-25T10:28:46;5.10;;;2.20;;
64816;SDS011;69411;45.656;11.740;2023-11-25T10:31:13;3.28;;;1.80;;
64816;SDS011;69411;45.656;11.740;2023-11-25T10:33:40;0.80;;;0.80;;
64816;SDS011;69411;45.656;11.740;2023-11-25T10:36:08;1.10;;;1.00;;
64816;SDS011;69411;45.656;11.740;2023-11-25T10:38:38;1.80;;;0.90;;
64816;SDS011;69411;45.656;11.740;2023-11-25T10:41:05;1.05;;;0.70;;
64816;SDS011;69411;45.656;11.740;2023-11-25T10:43:32;0.50;;;0.50;;
64816;SDS011;69411;45.656;11.740;2023-11-25T10:46:02;4.75;;;1.10;;
64816;SDS011;69411;45.656;11.740;2023-11-25T10:48:35;1.85;;;1.52;;
64816;SDS011;69411;45.656;11.740;2023-11-25T10:51:04;2.42;;;1.50;;
64816;SDS011;69411;45.656;11.740;2023-11-25T10:53:31;2.78;;;1.13;;
64816;SDS011;69411;45.656;11.740;2023-11-25T10:55:58;1.33;;;0.50;;
64816;SDS011;69411;45.656;11.740;2023-11-25T10:58:26;2.50;;;0.77;;
64816;SDS011;69411;45.656;11.740;2023-11-25T11:00:53;0.47;;;0.45;;
64816;SDS011;69411;45.656;11.740;2023-11-25T11:05:54;2.40;;;0.75;;
64816;SDS011;69411;45.656;11.740;2023-11-25T11:08:28;0.68;;;0.68;;
64816;SDS011;69411;45.656;11.740;2023-11-25T11:14:02;1.67;;;0.93;;
64816;SDS011;69411;45.656;11.740;2023-11-25T11:19:40;2.20;;;0.65;;
64816;SDS011;69411;45.656;11.740;2023-11-25T11:22:09;1.48;;;0.50;;
64816;SDS011;69411;45.656;11.740;2023-11-25T11:30:07;2.33;;;1.25;;
64816;SDS011;69411;45.656;11.740;2023-11-25T11:32:35;1.95;;;0.90;;
64816;SDS011;69411;45.656;11.740;2023-11-25T11:35:03;1.00;;;0.90;;
64816;SDS011;69411;45.656;11.740;2023-11-25T11:37:36;0.98;;;0.80;;
64816;SDS011;69411;45.656;11.740;2023-11-25T11:40:03;2.28;;;1.77;;
64816;SDS011;69411;45.656;11.740;2023-11-25T11:42:32;1.08;;;0.60;;
64816;SDS011;69411;45.656;11.740;2023-11-25T11:47:58;3.30;;;1.47;;
64816;SDS011;69411;45.656;11.740;2023-11-25T11:50:32;2.92;;;0.50;;
64816;SDS011;69411;45.656;11.740;2023-11-25T11:58:15;1.63;;;1.10;;
64816;SDS011;69411;45.656;11.740;2023-11-25T12:00:46;3.95;;;2.20;;
64816;SDS011;69411;45.656;11.740;2023-11-25T12:03:29;0.93;;;0.80;;
64816;SDS011;69411;45.656;11.740;2023-11-25T12:05:56;4.03;;;1.00;;
64816;SDS011;69411;45.656;11.740;2023-11-25T12:08:22;0.85;;;0.80;;
64816;SDS011;69411;45.656;11.740;2023-11-25T12:10:48;1.30;;;0.60;;
64816;SDS011;69411;45.656;11.740;2023-11-25T12:13:25;0.90;;;0.40;;
64816;SDS011;69411;45.656;11.740;2023-11-25T12:15:52;0.40;;;0.40;;
64816;SDS011;69411;45.656;11.740;2023-11-25T12:18:19;0.90;;;0.70;;
64816;SDS011;69411;45.656;11.740;2023-11-25T12:20:46;1.17;;;0.68;;
64816;SDS011;69411;45.656;11.740;2023-11-25T12:23:12;1.30;;;0.50;;
64816;SDS011;69411;45.656;11.740;2023-11-25T12:25:38;0.60;;;0.45;;
64816;SDS011;69411;45.656;11.740;2023-11-25T12:28:05;0.75;;;0.40;;
64816;SDS011;69411;45.656;11.740;2023-11-25T12:30:36;0.95;;;0.50;;
64816;SDS011;69411;45.656;11.740;2023-11-25T12:33:05;0.90;;;0.60;;
64816;SDS011;69411;45.656;11.740;2023-11-25T12:35:35;1.45;;;0.40;;
64816;SDS011;69411;45.656;11.740;2023-11-25T12:38:02;1.38;;;1.00;;
64816;SDS011;69411;45.656;11.740;2023-11-25T12:40:32;2.70;;;1.40;;
64816;SDS011;69411;45.656;11.740;2023-11-25T12:42:59;0.50;;;0.50;;
64816;SDS011;69411;45.656;11.740;2023-11-25T12:45:34;2.78;;;0.85;;
64816;SDS011;69411;45.656;11.740;2023-11-25T12:48:06;4.35;;;2.28;;
64816;SDS011;69411;45.656;11.740;2023-11-25T12:50:34;2.50;;;0.90;;
64816;SDS011;69411;45.656;11.740;2023-11-25T12:53:20;1.90;;;0.98;;
64816;SDS011;69411;45.656;11.740;2023-11-25T12:55:46;9.50;;;4.20;;
64816;SDS011;69411;45.656;11.740;2023-11-25T12:58:16;7.43;;;2.88;;
64816;SDS011;69411;45.656;11.740;2023-11-25T13:00:44;0.45;;;0.30;;
64816;SDS011;69411;45.656;11.740;2023-11-25T13:03:10;0.75;;;0.50;;
64816;SDS011;69411;45.656;11.740;2023-11-25T13:05:38;1.23;;;0.70;;
64816;SDS011;69411;45.656;11.740;2023-11-25T13:08:19;0.95;;;0.68;;
64816;SDS011;69411;45.656;11.740;2023-11-25T13:10:46;4.22;;;0.70;;
64816;SDS011;69411;45.656;11.740;2023-11-25T13:13:13;0.60;;;0.60;;
64816;SDS011;69411;45.656;11.740;2023-11-25T13:15:40;2.53;;;1.58;;
64816;SDS011;69411;45.656;11.740;2023-11-25T13:18:07;2.08;;;1.42;;
64816;SDS011;69411;45.656;11.740;2023-11-25T13:20:33;2.15;;;1.60;;
64816;SDS011;69411;45.656;11.740;2023-11-25T13:22:59;3.03;;;1.67;;
64816;SDS011;69411;45.656;11.740;2023-11-25T13:25:25;2.10;;;1.40;;
64816;SDS011;69411;45.656;11.740;2023-11-25T13:27:51;1.20;;;1.10;;
64816;SDS011;69411;45.656;11.740;2023-11-25T13:30:17;2.45;;;0.98;;
64816;SDS011;69411;45.656;11.740;2023-11-25T13:32:45;1.25;;;0.60;;
64816;SDS011;69411;45.656;11.740;2023-11-25T13:35:11;1.85;;;0.98;;
64816;SDS011;69411;45.656;11.740;2023-11-25T13:37:37;4.78;;;2.30;;
64816;SDS011;69411;45.656;11.740;2023-11-25T13:40:04;1.55;;;1.02;;
64816;SDS011;69411;45.656;11.740;2023-11-25T13:42:37;3.20;;;2.20;;
64816;SDS011;69411;45.656;11.740;2023-11-25T13:45:03;4.80;;;2.50;;
64816;SDS011;69411;45.656;11.740;2023-11-25T13:47:30;6.05;;;1.77;;
64816;SDS011;69411;45.656;11.740;2023-11-25T13:49:55;1.73;;;0.90;;
64816;SDS011;69411;45.656;11.740;2023-11-25T13:55:08;0.88;;;0.70;;
64816;SDS011;69411;45.656;11.740;2023-11-25T13:57:37;3.65;;;1.63;;
64816;SDS011;69411;45.656;11.740;2023-11-25T14:00:03;3.35;;;1.63;;
64816;SDS011;69411;45.656;11.740;2023-11-25T14:02:31;0.95;;;0.70;;
64816;SDS011;69411;45.656;11.740;2023-11-25T14:04:58;3.40;;;1.40;;
64816;SDS011;69411;45.656;11.740;2023-11-25T14:10:10;3.60;;;1.60;;
64816;SDS011;69411;45.656;11.740;2023-11-25T14:12:39;2.63;;;0.90;;
64816;SDS011;69411;45.656;11.740;2023-11-25T14:15:06;3.60;;;0.88;;
64816;SDS011;69411;45.656;11.740;2023-11-25T14:17:34;0.25;;;0.25;;
64816;SDS011;69411;45.656;11.740;2023-11-25T14:20:02;1.42;;;1.33;;
64816;SDS011;69411;45.656;11.740;2023-11-25T14:22:39;0.65;;;0.60;;
64816;SDS011;69411;45.656;11.740;2023-11-25T14:25:15;0.77;;;0.77;;
64816;SDS011;69411;45.656;11.740;2023-11-25T14:27:47;3.15;;;0.40;;
64816;SDS011;69411;45.656;11.740;2023-11-25T14:30:14;1.13;;;0.47;;
64816;SDS011;69411;45.656;11.740;2023-11-25T14:32:43;0.52;;;0.40;;
64816;SDS011;69411;45.656;11.740;2023-11-25T14:35:12;0.88;;;0.60;;
64816;SDS011;69411;45.656;11.740;2023-11-25T14:37:38;0.70;;;0.70;;
64816;SDS011;69411;45.656;11.740;2023-11-25T14:40:05;1.70;;;1.00;;
64816;SDS011;69411;45.656;11.740;2023-11-25T14:42:32;0.70;;;0.70;;
64816;SDS011;69411;45.656;11.740;2023-11-25T14:47:33;1.25;;;0.75;;
64816;SDS011;69411;45.656;11.740;2023-11-25T14:50:00;1.75;;;0.77;;
64816;SDS011;69411;45.656;11.740;2023-11-25T14:52:26;0.52;;;0.40;;
64816;SDS011;69411;45.656;11.740;2023-11-25T14:54:52;2.17;;;0.52;;
64816;SDS011;69411;45.656;11.740;2023-11-25T14:57:19;0.60;;;0.55;;
64816;SDS011;69411;45.656;11.740;2023-11-25T14:59:46;0.43;;;0.38;;
64816;SDS011;69411;45.656;11.740;2023-11-25T15:02:14;0.95;;;0.45;;
64816;SDS011;69411;45.656;11.740;2023-11-25T15:04:40;1.92;;;0.47;;
64816;SDS011;69411;45.656;11.740;2023-11-25T15:07:06;4.05;;;1.35;;
64816;SDS011;69411;45.656;11.740;2023-11-25T15:09:33;1.77;;;0.98;;
64816;SDS011;69411;45.656;11.740;2023-11-25T15:11:59;0.90;;;0.50;;
64816;SDS011;69411;45.656;11.740;2023-11-25T15:14:26;1.02;;;0.60;;
64816;SDS011;69411;45.656;11.740;2023-11-25T15:16:55;0.80;;;0.80;;